sensor_id;sensor_type;location;lat;lon;timestamp;P1;durP1;ratioP1;P2;durP2;ratioP2
50585;SDS011;36542;51.700;8.846;2023-07-13T00:01:49;7.73;;;4.33;;
50585;SDS011;36542;51.700;8.846;2023-07-13T00:04:16;7.57;;;4.13;;
50585;SDS011;36542;51.700;8.846;2023-07-13T00:06:46;8.20;;;4.30;;
50585;SDS011;36542;51.700;8.846;2023-07-13T00:09:15;5.83;;;3.80;;
50585;SDS011;36542;51.700;8.846;2023-07-13T00:11:42;5.70;;;3.87;;
50585;SDS011;36542;51.700;8.846;2023-07-13T00:14:09;5.87;;;3.73;;
50585;SDS011;36542;51.700;8.846;2023-07-13T00:16:36;6.53;;;3.60;;
50585;SDS011;36542;51.700;8.846;2023-07-13T00:19:03;4.77;;;3.80;;
50585;SDS011;36542;51.700;8.846;2023-07-13T00:21:28;7.70;;;3.83;;
50585;SDS011;36542;51.700;8.846;2023-07-13T00:23:54;6.57;;;4.23;;
50585;SDS011;36542;51.700;8.846;2023-07-13T00:26:20;6.60;;;4.33;;
50585;SDS011;36542;51.700;8.846;2023-07-13T00:28:45;7.23;;;4.07;;
50585;SDS011;36542;51.700;8.846;2023-07-13T00:31:11;5.50;;;4.47;;
50585;SDS011;36542;51.700;8.846;2023-07-13T00:33:39;10.13;;;4.53;;
50585;SDS011;36542;51.700;8.846;2023-07-13T00:36:05;7.83;;;4.40;;
50585;SDS011;36542;51.700;8.846;2023-07-13T00:38:31;8.63;;;5.03;;
50585;SDS011;36542;51.700;8.846;2023-07-13T00:40:56;7.93;;;5.00;;
50585;SDS011;36542;51.700;8.846;2023-07-13T00:43:23;9.57;;;4.50;;
50585;SDS011;36542;51.700;8.846;2023-07-13T00:48:27;5.70;;;4.57;;
50585;SDS011;36542;51.700;8.846;2023-07-13T00:50:56;6.83;;;5.37;;
50585;SDS011;36542;51.700;8.846;2023-07-13T00:53:26;6.43;;;5.00;;
50585;SDS011;36542;51.700;8.846;2023-07-13T00:55:53;8.17;;;5.17;;
50585;SDS011;36542;51.700;8.846;2023-07-13T00:58:20;13.70;;;5.03;;
50585;SDS011;36542;51.700;8.846;2023-07-13T01:00:46;10.13;;;5.90;;
50585;SDS011;36542;51.700;8.846;2023-07-13T01:03:13;12.30;;;5.27;;
50585;SDS011;36542;51.700;8.846;2023-07-13T01:05:40;5.30;;;4.77;;
50585;SDS011;36542;51.700;8.846;2023-07-13T01:08:05;8.80;;;5.80;;
50585;SDS011;36542;51.700;8.846;2023-07-13T01:10:31;10.87;;;6.03;;
50585;SDS011;36542;51.700;8.846;2023-07-13T01:13:03;7.73;;;6.10;;
50585;SDS011;36542;51.700;8.846;2023-07-13T01:15:40;7.63;;;5.70;;
50585;SDS011;36542;51.700;8.846;2023-07-13T01:18:21;7.30;;;5.30;;
50585;SDS011;36542;51.700;8.846;2023-07-13T01:20:59;9.43;;;5.63;;
50585;SDS011;36542;51.700;8.846;2023-07-13T01:23:27;6.93;;;5.67;;
50585;SDS011;36542;51.700;8.846;2023-07-13T01:25:53;9.13;;;6.03;;
50585;SDS011;36542;51.700;8.846;2023-07-13T01:28:20;8.90;;;5.33;;
50585;SDS011;36542;51.700;8.846;2023-07-13T01:30:47;6.20;;;5.50;;
50585;SDS011;36542;51.700;8.846;2023-07-13T01:33:13;8.57;;;5.33;;
50585;SDS011;36542;51.700;8.846;2023-07-13T01:35:40;6.67;;;5.37;;
50585;SDS011;36542;51.700;8.846;2023-07-13T01:38:06;8.47;;;6.50;;
50585;SDS011;36542;51.700;8.846;2023-07-13T01:40:33;8.83;;;6.50;;
50585;SDS011;36542;51.700;8.846;2023-07-13T01:43:00;6.57;;;5.93;;
50585;SDS011;36542;51.700;8.846;2023-07-13T01:45:26;9.00;;;6.13;;
50585;SDS011;36542;51.700;8.846;2023-07-13T01:47:51;9.37;;;5.90;;
50585;SDS011;36542;51.700;8.846;2023-07-13T01:50:17;9.50;;;5.83;;
50585;SDS011;36542;51.700;8.846;2023-07-13T01:52:43;7.77;;;4.97;;
50585;SDS011;36542;51.700;8.846;2023-07-13T01:55:08;7.33;;;5.80;;
50585;SDS011;36542;51.700;8.846;2023-07-13T01:57:34;10.27;;;6.43;;
50585;SDS011;36542;51.700;8.846;2023-07-13T02:00:00;8.17;;;5.40;;
50585;SDS011;36542;51.700;8.846;2023-07-13T02:02:27;7.27;;;5.13;;
50585;SDS011;36542;51.700;8.846;2023-07-13T02:04:53;9.07;;;5.70;;
50585;SDS011;36542;51.700;8.846;2023-07-13T02:07:18;11.03;;;5.93;;
50585;SDS011;36542;51.700;8.846;2023-07-13T02:09:44;8.70;;;5.13;;
50585;SDS011;36542;51.700;8.846;2023-07-13T02:12:09;7.57;;;4.97;;
50585;SDS011;36542;51.700;8.846;2023-07-13T02:14:35;6.87;;;5.10;;
50585;SDS011;36542;51.700;8.846;2023-07-13T02:17:00;8.33;;;4.57;;
50585;SDS011;36542;51.700;8.846;2023-07-13T02:19:26;5.73;;;4.10;;
50585;SDS011;36542;51.700;8.846;2023-07-13T02:21:51;8.57;;;4.83;;
50585;SDS011;36542;51.700;8.846;2023-07-13T02:24:17;10.87;;;4.70;;
50585;SDS011;36542;51.700;8.846;2023-07-13T02:26:44;10.50;;;4.77;;
50585;SDS011;36542;51.700;8.846;2023-07-13T02:29:10;10.43;;;4.63;;
50585;SDS011;36542;51.700;8.846;2023-07-13T02:31:36;8.17;;;4.20;;
50585;SDS011;36542;51.700;8.846;2023-07-13T02:34:02;4.80;;;3.57;;
50585;SDS011;36542;51.700;8.846;2023-07-13T02:36:28;8.50;;;4.23;;
50585;SDS011;36542;51.700;8.846;2023-07-13T02:38:55;9.00;;;4.30;;
50585;SDS011;36542;51.700;8.846;2023-07-13T02:41:20;6.73;;;4.30;;
50585;SDS011;36542;51.700;8.846;2023-07-13T02:43:46;8.00;;;4.30;;
50585;SDS011;36542;51.700;8.846;2023-07-13T02:46:11;8.13;;;4.47;;
50585;SDS011;36542;51.700;8.846;2023-07-13T02:48:37;8.77;;;4.00;;
50585;SDS011;36542;51.700;8.846;2023-07-13T02:51:04;9.37;;;4.30;;
50585;SDS011;36542;51.700;8.846;2023-07-13T02:53:29;10.53;;;3.93;;
50585;SDS011;36542;51.700;8.846;2023-07-13T02:55:55;9.67;;;4.03;;
50585;SDS011;36542;51.700;8.846;2023-07-13T02:58:21;11.13;;;4.10;;
50585;SDS011;36542;51.700;8.846;2023-07-13T03:00:47;11.13;;;3.53;;
50585;SDS011;36542;51.700;8.846;2023-07-13T03:03:15;6.40;;;4.00;;
50585;SDS011;36542;51.700;8.846;2023-07-13T03:05:41;7.30;;;3.53;;
50585;SDS011;36542;51.700;8.846;2023-07-13T03:08:10;12.60;;;3.70;;
50585;SDS011;36542;51.700;8.846;2023-07-13T03:10:36;5.20;;;3.20;;
50585;SDS011;36542;51.700;8.846;2023-07-13T03:13:04;6.90;;;3.50;;
50585;SDS011;36542;51.700;8.846;2023-07-13T03:15:30;8.63;;;3.37;;
50585;SDS011;36542;51.700;8.846;2023-07-13T03:17:55;8.03;;;3.67;;
50585;SDS011;36542;51.700;8.846;2023-07-13T03:20:20;8.73;;;3.50;;
50585;SDS011;36542;51.700;8.846;2023-07-13T03:22:46;6.27;;;3.43;;
50585;SDS011;36542;51.700;8.846;2023-07-13T03:25:12;7.60;;;3.13;;
50585;SDS011;36542;51.700;8.846;2023-07-13T03:27:37;8.20;;;3.37;;
50585;SDS011;36542;51.700;8.846;2023-07-13T03:30:06;9.10;;;3.23;;
50585;SDS011;36542;51.700;8.846;2023-07-13T03:32:32;6.90;;;3.13;;
50585;SDS011;36542;51.700;8.846;2023-07-13T03:34:58;6.93;;;3.00;;
50585;SDS011;36542;51.700;8.846;2023-07-13T03:37:23;5.83;;;3.10;;
50585;SDS011;36542;51.700;8.846;2023-07-13T03:39:49;5.77;;;2.60;;
50585;SDS011;36542;51.700;8.846;2023-07-13T03:42:15;9.40;;;3.10;;
50585;SDS011;36542;51.700;8.846;2023-07-13T03:44:40;6.80;;;2.90;;
50585;SDS011;36542;51.700;8.846;2023-07-13T03:47:07;11.17;;;2.70;;
50585;SDS011;36542;51.700;8.846;2023-07-13T03:49:33;7.73;;;3.03;;
50585;SDS011;36542;51.700;8.846;2023-07-13T03:51:59;7.33;;;2.60;;
50585;SDS011;36542;51.700;8.846;2023-07-13T03:54:25;8.10;;;2.90;;
50585;SDS011;36542;51.700;8.846;2023-07-13T03:56:51;5.30;;;2.27;;
50585;SDS011;36542;51.700;8.846;2023-07-13T03:59:16;3.70;;;2.40;;
50585;SDS011;36542;51.700;8.846;2023-07-13T04:01:42;7.17;;;3.20;;
50585;SDS011;36542;51.700;8.846;2023-07-13T04:04:08;4.70;;;2.33;;
50585;SDS011;36542;51.700;8.846;2023-07-13T04:06:34;6.00;;;2.77;;
50585;SDS011;36542;51.700;8.846;2023-07-13T04:09:00;3.73;;;2.20;;
50585;SDS011;36542;51.700;8.846;2023-07-13T04:11:29;5.23;;;2.30;;
50585;SDS011;36542;51.700;8.846;2023-07-13T04:13:56;6.93;;;2.30;;
50585;SDS011;36542;51.700;8.846;2023-07-13T04:16:22;4.63;;;2.33;;
50585;SDS011;36542;51.700;8.846;2023-07-13T04:18:48;5.97;;;2.50;;
50585;SDS011;36542;51.700;8.846;2023-07-13T04:21:15;5.13;;;2.37;;
50585;SDS011;36542;51.700;8.846;2023-07-13T04:23:41;5.03;;;2.40;;
50585;SDS011;36542;51.700;8.846;2023-07-13T04:26:06;6.63;;;2.27;;
50585;SDS011;36542;51.700;8.846;2023-07-13T04:28:32;4.93;;;1.90;;
50585;SDS011;36542;51.700;8.846;2023-07-13T04:30:58;9.03;;;2.37;;
50585;SDS011;36542;51.700;8.846;2023-07-13T04:33:24;6.30;;;2.20;;
50585;SDS011;36542;51.700;8.846;2023-07-13T04:35:52;7.83;;;2.27;;
50585;SDS011;36542;51.700;8.846;2023-07-13T04:38:21;7.57;;;2.07;;
50585;SDS011;36542;51.700;8.846;2023-07-13T04:40:52;5.60;;;2.03;;
50585;SDS011;36542;51.700;8.846;2023-07-13T04:43:19;5.00;;;1.90;;
50585;SDS011;36542;51.700;8.846;2023-07-13T04:45:45;8.60;;;2.03;;
50585;SDS011;36542;51.700;8.846;2023-07-13T04:48:10;6.90;;;2.40;;
50585;SDS011;36542;51.700;8.846;2023-07-13T04:50:36;4.57;;;1.97;;
50585;SDS011;36542;51.700;8.846;2023-07-13T04:53:02;6.30;;;2.20;;
50585;SDS011;36542;51.700;8.846;2023-07-13T04:55:29;5.63;;;2.20;;
50585;SDS011;36542;51.700;8.846;2023-07-13T04:57:55;7.33;;;1.90;;
50585;SDS011;36542;51.700;8.846;2023-07-13T05:00:23;4.47;;;1.80;;
50585;SDS011;36542;51.700;8.846;2023-07-13T05:02:49;4.63;;;1.80;;
50585;SDS011;36542;51.700;8.846;2023-07-13T05:05:14;7.47;;;2.07;;
50585;SDS011;36542;51.700;8.846;2023-07-13T05:07:40;6.40;;;2.03;;
50585;SDS011;36542;51.700;8.846;2023-07-13T05:10:05;2.87;;;1.80;;
50585;SDS011;36542;51.700;8.846;2023-07-13T05:12:32;3.67;;;1.83;;
50585;SDS011;36542;51.700;8.846;2023-07-13T05:14:57;7.30;;;1.83;;
50585;SDS011;36542;51.700;8.846;2023-07-13T05:17:23;5.07;;;1.80;;
50585;SDS011;36542;51.700;8.846;2023-07-13T05:19:48;7.10;;;2.10;;
50585;SDS011;36542;51.700;8.846;2023-07-13T05:22:14;7.27;;;1.90;;
50585;SDS011;36542;51.700;8.846;2023-07-13T05:24:39;6.73;;;2.53;;
50585;SDS011;36542;51.700;8.846;2023-07-13T05:27:05;4.57;;;1.70;;
50585;SDS011;36542;51.700;8.846;2023-07-13T05:29:31;6.23;;;1.70;;
50585;SDS011;36542;51.700;8.846;2023-07-13T05:31:56;4.67;;;2.00;;
50585;SDS011;36542;51.700;8.846;2023-07-13T05:37:39;5.65;;;1.80;;
50585;SDS011;36542;51.700;8.846;2023-07-13T05:40:04;5.00;;;1.70;;
50585;SDS011;36542;51.700;8.846;2023-07-13T05:42:30;5.07;;;1.75;;
50585;SDS011;36542;51.700;8.846;2023-07-13T05:44:56;5.15;;;1.80;;
50585;SDS011;36542;51.700;8.846;2023-07-13T05:47:22;6.70;;;1.48;;
50585;SDS011;36542;51.700;8.846;2023-07-13T05:49:48;5.47;;;1.65;;
50585;SDS011;36542;51.700;8.846;2023-07-13T05:52:13;6.53;;;1.80;;
50585;SDS011;36542;51.700;8.846;2023-07-13T05:54:38;7.43;;;1.92;;
50585;SDS011;36542;51.700;8.846;2023-07-13T05:57:04;8.50;;;1.70;;
50585;SDS011;36542;51.700;8.846;2023-07-13T05:59:30;4.60;;;1.70;;
50585;SDS011;36542;51.700;8.846;2023-07-13T06:01:55;2.72;;;1.65;;
50585;SDS011;36542;51.700;8.846;2023-07-13T06:04:21;4.20;;;1.88;;
50585;SDS011;36542;51.700;8.846;2023-07-13T06:06:47;6.30;;;2.08;;
50585;SDS011;36542;51.700;8.846;2023-07-13T06:09:13;7.22;;;1.70;;
50585;SDS011;36542;51.700;8.846;2023-07-13T06:11:38;5.45;;;1.30;;
50585;SDS011;36542;51.700;8.846;2023-07-13T06:14:04;4.35;;;1.63;;
50585;SDS011;36542;51.700;8.846;2023-07-13T06:16:29;5.45;;;1.70;;
50585;SDS011;36542;51.700;8.846;2023-07-13T06:18:55;3.35;;;1.33;;
50585;SDS011;36542;51.700;8.846;2023-07-13T06:21:21;3.80;;;1.48;;
50585;SDS011;36542;51.700;8.846;2023-07-13T06:23:48;3.80;;;1.70;;
50585;SDS011;36542;51.700;8.846;2023-07-13T06:26:15;7.85;;;1.90;;
50585;SDS011;36542;51.700;8.846;2023-07-13T06:28:42;5.50;;;1.92;;
50585;SDS011;36542;51.700;8.846;2023-07-13T06:31:09;4.05;;;2.08;;
50585;SDS011;36542;51.700;8.846;2023-07-13T06:33:36;4.60;;;1.60;;
50585;SDS011;36542;51.700;8.846;2023-07-13T06:36:02;5.45;;;2.00;;
50585;SDS011;36542;51.700;8.846;2023-07-13T06:38:29;5.07;;;2.10;;
50585;SDS011;36542;51.700;8.846;2023-07-13T06:40:55;8.52;;;2.28;;
50585;SDS011;36542;51.700;8.846;2023-07-13T06:43:20;8.30;;;1.83;;
50585;SDS011;36542;51.700;8.846;2023-07-13T06:45:46;9.30;;;2.08;;
50585;SDS011;36542;51.700;8.846;2023-07-13T06:48:14;4.72;;;2.00;;
50585;SDS011;36542;51.700;8.846;2023-07-13T06:50:41;6.35;;;1.70;;
50585;SDS011;36542;51.700;8.846;2023-07-13T06:53:07;6.22;;;1.83;;
50585;SDS011;36542;51.700;8.846;2023-07-13T06:55:33;8.55;;;2.08;;
50585;SDS011;36542;51.700;8.846;2023-07-13T06:57:58;7.38;;;1.65;;
50585;SDS011;36542;51.700;8.846;2023-07-13T07:00:24;7.10;;;2.38;;
50585;SDS011;36542;51.700;8.846;2023-07-13T07:02:50;6.72;;;1.92;;
50585;SDS011;36542;51.700;8.846;2023-07-13T07:05:16;5.80;;;2.00;;
50585;SDS011;36542;51.700;8.846;2023-07-13T07:07:41;10.05;;;2.40;;
50585;SDS011;36542;51.700;8.846;2023-07-13T07:10:07;5.32;;;1.75;;
50585;SDS011;36542;51.700;8.846;2023-07-13T07:12:33;6.63;;;2.08;;
50585;SDS011;36542;51.700;8.846;2023-07-13T07:14:58;8.05;;;2.15;;
50585;SDS011;36542;51.700;8.846;2023-07-13T07:17:24;6.18;;;1.98;;
50585;SDS011;36542;51.700;8.846;2023-07-13T07:19:50;5.53;;;2.28;;
50585;SDS011;36542;51.700;8.846;2023-07-13T07:22:18;4.63;;;1.98;;
50585;SDS011;36542;51.700;8.846;2023-07-13T07:24:44;7.30;;;2.35;;
50585;SDS011;36542;51.700;8.846;2023-07-13T07:27:10;7.57;;;2.28;;
50585;SDS011;36542;51.700;8.846;2023-07-13T07:29:35;7.80;;;2.30;;
50585;SDS011;36542;51.700;8.846;2023-07-13T07:32:01;4.68;;;1.75;;
50585;SDS011;36542;51.700;8.846;2023-07-13T07:34:26;8.13;;;2.22;;
50585;SDS011;36542;51.700;8.846;2023-07-13T07:36:53;3.88;;;1.90;;
50585;SDS011;36542;51.700;8.846;2023-07-13T07:39:18;5.65;;;1.90;;
50585;SDS011;36542;51.700;8.846;2023-07-13T07:41:44;7.78;;;2.20;;
50585;SDS011;36542;51.700;8.846;2023-07-13T07:44:09;5.78;;;2.05;;
50585;SDS011;36542;51.700;8.846;2023-07-13T07:46:35;6.43;;;2.08;;
50585;SDS011;36542;51.700;8.846;2023-07-13T07:49:01;5.50;;;1.88;;
50585;SDS011;36542;51.700;8.846;2023-07-13T07:51:26;6.50;;;2.13;;
50585;SDS011;36542;51.700;8.846;2023-07-13T07:53:53;8.13;;;2.13;;
50585;SDS011;36542;51.700;8.846;2023-07-13T07:56:19;6.07;;;1.95;;
50585;SDS011;36542;51.700;8.846;2023-07-13T07:58:44;6.53;;;2.10;;
50585;SDS011;36542;51.700;8.846;2023-07-13T08:01:10;3.92;;;1.70;;
50585;SDS011;36542;51.700;8.846;2023-07-13T08:03:35;7.47;;;2.38;;
50585;SDS011;36542;51.700;8.846;2023-07-13T08:06:01;6.93;;;2.10;;
50585;SDS011;36542;51.700;8.846;2023-07-13T08:08:27;8.40;;;2.20;;
50585;SDS011;36542;51.700;8.846;2023-07-13T08:10:52;5.22;;;1.73;;
50585;SDS011;36542;51.700;8.846;2023-07-13T08:13:18;5.50;;;1.70;;
50585;SDS011;36542;51.700;8.846;2023-07-13T08:15:44;4.13;;;1.70;;
50585;SDS011;36542;51.700;8.846;2023-07-13T08:18:10;7.45;;;2.15;;
50585;SDS011;36542;51.700;8.846;2023-07-13T08:20:36;4.30;;;1.85;;
50585;SDS011;36542;51.700;8.846;2023-07-13T08:23:03;5.28;;;2.00;;
50585;SDS011;36542;51.700;8.846;2023-07-13T08:25:28;4.40;;;1.90;;
50585;SDS011;36542;51.700;8.846;2023-07-13T08:27:54;5.35;;;2.35;;
50585;SDS011;36542;51.700;8.846;2023-07-13T08:30:19;5.97;;;2.15;;
50585;SDS011;36542;51.700;8.846;2023-07-13T08:32:45;6.18;;;1.75;;
50585;SDS011;36542;51.700;8.846;2023-07-13T08:35:10;3.53;;;1.80;;
50585;SDS011;36542;51.700;8.846;2023-07-13T08:37:36;4.13;;;1.85;;
50585;SDS011;36542;51.700;8.846;2023-07-13T08:40:02;5.65;;;1.88;;
50585;SDS011;36542;51.700;8.846;2023-07-13T08:42:37;5.15;;;2.33;;
50585;SDS011;36542;51.700;8.846;2023-07-13T08:45:21;4.93;;;2.20;;
50585;SDS011;36542;51.700;8.846;2023-07-13T08:47:57;5.22;;;1.90;;
50585;SDS011;36542;51.700;8.846;2023-07-13T08:50:37;4.50;;;2.05;;
50585;SDS011;36542;51.700;8.846;2023-07-13T08:53:12;5.43;;;2.55;;
50585;SDS011;36542;51.700;8.846;2023-07-13T08:55:41;7.78;;;2.17;;
50585;SDS011;36542;51.700;8.846;2023-07-13T08:58:11;7.35;;;2.20;;
50585;SDS011;36542;51.700;8.846;2023-07-13T09:00:41;7.25;;;2.10;;
50585;SDS011;36542;51.700;8.846;2023-07-13T09:03:40;3.65;;;1.75;;
50585;SDS011;36542;51.700;8.846;2023-07-13T09:06:15;7.65;;;2.22;;
50585;SDS011;36542;51.700;8.846;2023-07-13T09:08:47;4.18;;;1.90;;
50585;SDS011;36542;51.700;8.846;2023-07-13T09:11:55;6.63;;;2.58;;
50585;SDS011;36542;51.700;8.846;2023-07-13T09:17:14;5.60;;;2.15;;
50585;SDS011;36542;51.700;8.846;2023-07-13T09:19:53;4.32;;;2.47;;
50585;SDS011;36542;51.700;8.846;2023-07-13T09:22:46;7.18;;;2.13;;
50585;SDS011;36542;51.700;8.846;2023-07-13T09:25:24;3.75;;;2.15;;
50585;SDS011;36542;51.700;8.846;2023-07-13T09:27:56;6.32;;;2.17;;
50585;SDS011;36542;51.700;8.846;2023-07-13T09:33:08;5.13;;;2.20;;
50585;SDS011;36542;51.700;8.846;2023-07-13T09:35:34;5.13;;;2.20;;
50585;SDS011;36542;51.700;8.846;2023-07-13T09:38:11;8.48;;;2.42;;
50585;SDS011;36542;51.700;8.846;2023-07-13T09:40:40;5.03;;;2.40;;
50585;SDS011;36542;51.700;8.846;2023-07-13T09:43:15;4.30;;;2.20;;
50585;SDS011;36542;51.700;8.846;2023-07-13T09:45:41;6.38;;;2.88;;
50585;SDS011;36542;51.700;8.846;2023-07-13T09:48:12;8.80;;;3.00;;
50585;SDS011;36542;51.700;8.846;2023-07-13T09:50:38;5.75;;;2.55;;
50585;SDS011;36542;51.700;8.846;2023-07-13T09:53:09;5.57;;;2.10;;
50585;SDS011;36542;51.700;8.846;2023-07-13T09:55:41;6.90;;;3.15;;
50585;SDS011;36542;51.700;8.846;2023-07-13T09:58:13;5.50;;;2.75;;
50585;SDS011;36542;51.700;8.846;2023-07-13T10:00:39;7.25;;;2.42;;
50585;SDS011;36542;51.700;8.846;2023-07-13T10:03:14;8.82;;;2.80;;
50585;SDS011;36542;51.700;8.846;2023-07-13T10:05:43;4.07;;;2.00;;
50585;SDS011;36542;51.700;8.846;2023-07-13T10:08:18;4.38;;;2.30;;
50585;SDS011;36542;51.700;8.846;2023-07-13T10:10:46;3.13;;;1.80;;
50585;SDS011;36542;51.700;8.846;2023-07-13T10:13:24;5.65;;;2.20;;
50585;SDS011;36542;51.700;8.846;2023-07-13T10:15:52;5.07;;;2.20;;
50585;SDS011;36542;51.700;8.846;2023-07-13T10:18:18;6.65;;;2.38;;
50585;SDS011;36542;51.700;8.846;2023-07-13T10:20:45;4.38;;;2.20;;
50585;SDS011;36542;51.700;8.846;2023-07-13T10:23:13;5.32;;;2.20;;
50585;SDS011;36542;51.700;8.846;2023-07-13T10:25:45;5.93;;;1.90;;
50585;SDS011;36542;51.700;8.846;2023-07-13T10:28:22;4.82;;;2.00;;
50585;SDS011;36542;51.700;8.846;2023-07-13T10:31:01;4.28;;;2.00;;
50585;SDS011;36542;51.700;8.846;2023-07-13T10:33:30;5.05;;;2.22;;
50585;SDS011;36542;51.700;8.846;2023-07-13T10:36:38;6.68;;;2.45;;
50585;SDS011;36542;51.700;8.846;2023-07-13T10:38:47;7.45;;;2.13;;
50585;SDS011;36542;51.700;8.846;2023-07-13T10:41:17;4.55;;;2.20;;
50585;SDS011;36542;51.700;8.846;2023-07-13T10:43:46;5.90;;;1.92;;
50585;SDS011;36542;51.700;8.846;2023-07-13T10:46:16;5.45;;;2.05;;
50585;SDS011;36542;51.700;8.846;2023-07-13T10:48:44;4.97;;;1.90;;
50585;SDS011;36542;51.700;8.846;2023-07-13T10:51:17;7.32;;;2.35;;
50585;SDS011;36542;51.700;8.846;2023-07-13T10:53:46;6.70;;;2.33;;
50585;SDS011;36542;51.700;8.846;2023-07-13T10:56:26;4.68;;;2.00;;
50585;SDS011;36542;51.700;8.846;2023-07-13T11:04:29;5.43;;;2.10;;
50585;SDS011;36542;51.700;8.846;2023-07-13T11:09:44;5.50;;;2.13;;
50585;SDS011;36542;51.700;8.846;2023-07-13T11:20:39;4.32;;;1.98;;
50585;SDS011;36542;51.700;8.846;2023-07-13T11:25:37;3.85;;;1.73;;
50585;SDS011;36542;51.700;8.846;2023-07-13T11:30:37;2.80;;;2.10;;
50585;SDS011;36542;51.700;8.846;2023-07-13T11:35:37;6.03;;;2.08;;
50585;SDS011;36542;51.700;8.846;2023-07-13T11:38:12;4.70;;;2.10;;
50585;SDS011;36542;51.700;8.846;2023-07-13T11:40:47;3.10;;;1.90;;
50585;SDS011;36542;51.700;8.846;2023-07-13T11:43:16;3.90;;;2.08;;
50585;SDS011;36542;51.700;8.846;2023-07-13T11:45:43;5.40;;;2.50;;
50585;SDS011;36542;51.700;8.846;2023-07-13T11:48:19;3.10;;;1.95;;
50585;SDS011;36542;51.700;8.846;2023-07-13T11:50:51;3.63;;;2.42;;
50585;SDS011;36542;51.700;8.846;2023-07-13T11:53:19;4.43;;;1.85;;
50585;SDS011;36542;51.700;8.846;2023-07-13T11:55:45;5.78;;;1.95;;
50585;SDS011;36542;51.700;8.846;2023-07-13T11:58:11;4.50;;;2.20;;
50585;SDS011;36542;51.700;8.846;2023-07-13T12:00:40;8.13;;;2.50;;
50585;SDS011;36542;51.700;8.846;2023-07-13T12:03:06;3.40;;;2.25;;
50585;SDS011;36542;51.700;8.846;2023-07-13T12:05:32;3.75;;;2.20;;
50585;SDS011;36542;51.700;8.846;2023-07-13T12:07:58;5.43;;;2.10;;
50585;SDS011;36542;51.700;8.846;2023-07-13T12:10:25;4.50;;;2.15;;
50585;SDS011;36542;51.700;8.846;2023-07-13T12:12:58;5.40;;;2.00;;
50585;SDS011;36542;51.700;8.846;2023-07-13T12:15:35;3.50;;;2.20;;
50585;SDS011;36542;51.700;8.846;2023-07-13T12:18:10;3.38;;;1.98;;
50585;SDS011;36542;51.700;8.846;2023-07-13T12:20:42;3.85;;;1.98;;
50585;SDS011;36542;51.700;8.846;2023-07-13T12:23:26;5.57;;;2.22;;
50585;SDS011;36542;51.700;8.846;2023-07-13T12:25:55;3.50;;;1.98;;
50585;SDS011;36542;51.700;8.846;2023-07-13T12:31:32;3.78;;;2.10;;
50585;SDS011;36542;51.700;8.846;2023-07-13T12:36:34;3.47;;;1.90;;
50585;SDS011;36542;51.700;8.846;2023-07-13T12:39:12;2.30;;;1.85;;
50585;SDS011;36542;51.700;8.846;2023-07-13T12:41:44;7.00;;;2.15;;
50585;SDS011;36542;51.700;8.846;2023-07-13T12:44:12;6.22;;;2.10;;
50585;SDS011;36542;51.700;8.846;2023-07-13T12:46:53;4.28;;;2.13;;
50585;SDS011;36542;51.700;8.846;2023-07-13T12:49:26;4.63;;;2.50;;
50585;SDS011;36542;51.700;8.846;2023-07-13T12:51:57;4.70;;;2.33;;
50585;SDS011;36542;51.700;8.846;2023-07-13T12:54:24;6.55;;;2.70;;
50585;SDS011;36542;51.700;8.846;2023-07-13T12:56:52;5.78;;;2.25;;
50585;SDS011;36542;51.700;8.846;2023-07-13T12:59:19;3.22;;;2.08;;
50585;SDS011;36542;51.700;8.846;2023-07-13T13:01:47;4.43;;;2.13;;
50585;SDS011;36542;51.700;8.846;2023-07-13T13:04:14;6.38;;;2.22;;
50585;SDS011;36542;51.700;8.846;2023-07-13T13:06:40;4.07;;;2.22;;
50585;SDS011;36542;51.700;8.846;2023-07-13T13:09:09;4.55;;;2.58;;
50585;SDS011;36542;51.700;8.846;2023-07-13T13:11:38;5.53;;;2.72;;
50585;SDS011;36542;51.700;8.846;2023-07-13T13:14:05;5.88;;;2.55;;
50585;SDS011;36542;51.700;8.846;2023-07-13T13:16:35;4.00;;;2.13;;
50585;SDS011;36542;51.700;8.846;2023-07-13T13:19:18;3.03;;;2.30;;
50585;SDS011;36542;51.700;8.846;2023-07-13T13:21:49;5.43;;;2.38;;
50585;SDS011;36542;51.700;8.846;2023-07-13T13:24:21;5.97;;;2.42;;
50585;SDS011;36542;51.700;8.846;2023-07-13T13:26:48;6.85;;;2.38;;
50585;SDS011;36542;51.700;8.846;2023-07-13T13:29:17;4.40;;;2.35;;
50585;SDS011;36542;51.700;8.846;2023-07-13T13:31:45;7.35;;;2.13;;
50585;SDS011;36542;51.700;8.846;2023-07-13T13:34:12;5.25;;;2.40;;
50585;SDS011;36542;51.700;8.846;2023-07-13T13:36:41;2.72;;;2.22;;
50585;SDS011;36542;51.700;8.846;2023-07-13T13:42:03;5.88;;;2.55;;
50585;SDS011;36542;51.700;8.846;2023-07-13T13:44:29;8.98;;;2.63;;
50585;SDS011;36542;51.700;8.846;2023-07-13T13:46:55;4.68;;;2.30;;
50585;SDS011;36542;51.700;8.846;2023-07-13T13:49:22;3.63;;;2.60;;
50585;SDS011;36542;51.700;8.846;2023-07-13T13:51:49;7.85;;;2.50;;
50585;SDS011;36542;51.700;8.846;2023-07-13T13:54:16;8.73;;;2.42;;
50585;SDS011;36542;51.700;8.846;2023-07-13T13:56:43;3.83;;;1.80;;
50585;SDS011;36542;51.700;8.846;2023-07-13T13:59:10;3.95;;;2.28;;
50585;SDS011;36542;51.700;8.846;2023-07-13T14:01:36;6.00;;;2.03;;
50585;SDS011;36542;51.700;8.846;2023-07-13T14:04:02;3.95;;;1.88;;
50585;SDS011;36542;51.700;8.846;2023-07-13T14:06:29;4.97;;;1.75;;
50585;SDS011;36542;51.700;8.846;2023-07-13T14:08:54;4.57;;;1.73;;
50585;SDS011;36542;51.700;8.846;2023-07-13T14:11:21;4.72;;;1.80;;
50585;SDS011;36542;51.700;8.846;2023-07-13T14:13:53;4.90;;;1.85;;
50585;SDS011;36542;51.700;8.846;2023-07-13T14:16:23;5.85;;;1.98;;
50585;SDS011;36542;51.700;8.846;2023-07-13T14:18:53;4.72;;;2.10;;
50585;SDS011;36542;51.700;8.846;2023-07-13T14:21:20;4.07;;;1.77;;
50585;SDS011;36542;51.700;8.846;2023-07-13T14:23:47;2.38;;;1.80;;
50585;SDS011;36542;51.700;8.846;2023-07-13T14:26:14;2.33;;;1.70;;
50585;SDS011;36542;51.700;8.846;2023-07-13T14:28:42;4.43;;;1.60;;
50585;SDS011;36542;51.700;8.846;2023-07-13T14:31:10;3.67;;;1.77;;
50585;SDS011;36542;51.700;8.846;2023-07-13T14:33:41;2.67;;;1.80;;
50585;SDS011;36542;51.700;8.846;2023-07-13T14:36:21;4.22;;;2.03;;
50585;SDS011;36542;51.700;8.846;2023-07-13T14:38:48;5.57;;;3.85;;
50585;SDS011;36542;51.700;8.846;2023-07-13T14:41:26;2.08;;;1.40;;
50585;SDS011;36542;51.700;8.846;2023-07-13T14:43:52;6.05;;;2.45;;
50585;SDS011;36542;51.700;8.846;2023-07-13T14:46:24;7.35;;;2.08;;
50585;SDS011;36542;51.700;8.846;2023-07-13T14:48:58;4.18;;;2.00;;
50585;SDS011;36542;51.700;8.846;2023-07-13T14:51:38;3.72;;;1.63;;
50585;SDS011;36542;51.700;8.846;2023-07-13T14:54:04;3.13;;;1.80;;
50585;SDS011;36542;51.700;8.846;2023-07-13T14:56:30;3.28;;;1.83;;
50585;SDS011;36542;51.700;8.846;2023-07-13T14:58:56;4.80;;;1.70;;
50585;SDS011;36542;51.700;8.846;2023-07-13T15:01:22;3.25;;;1.73;;
50585;SDS011;36542;51.700;8.846;2023-07-13T15:03:49;3.15;;;1.88;;
50585;SDS011;36542;51.700;8.846;2023-07-13T15:06:16;5.32;;;1.73;;
50585;SDS011;36542;51.700;8.846;2023-07-13T15:08:44;3.35;;;1.90;;
50585;SDS011;36542;51.700;8.846;2023-07-13T15:11:10;3.55;;;1.83;;
50585;SDS011;36542;51.700;8.846;2023-07-13T15:13:37;3.97;;;1.95;;
50585;SDS011;36542;51.700;8.846;2023-07-13T15:16:04;7.43;;;2.80;;
50585;SDS011;36542;51.700;8.846;2023-07-13T15:18:37;6.90;;;3.23;;
50585;SDS011;36542;51.700;8.846;2023-07-13T15:21:08;8.33;;;4.10;;
50585;SDS011;36542;51.700;8.846;2023-07-13T15:23:38;7.57;;;4.00;;
50585;SDS011;36542;51.700;8.846;2023-07-13T15:26:04;8.23;;;4.60;;
50585;SDS011;36542;51.700;8.846;2023-07-13T15:28:31;9.20;;;4.70;;
50585;SDS011;36542;51.700;8.846;2023-07-13T15:30:57;8.63;;;3.57;;
50585;SDS011;36542;51.700;8.846;2023-07-13T15:33:24;6.80;;;4.00;;
50585;SDS011;36542;51.700;8.846;2023-07-13T15:35:52;7.40;;;4.30;;
50585;SDS011;36542;51.700;8.846;2023-07-13T15:38:20;7.27;;;5.47;;